Time;durP1;ratioP1;P1;durP2;ratioP2;P2;SDS_P1;SDS_P2;PMS_P1;PMS_P2;Temp;Humidity;BMP_temperature;BMP_pressure;BME280_temperature;BME280_humidity;BME280_pressure;Samples;Min_cycle;Max_cycle;Signal;HPM_P1;HPM_P2
2023/10/05 13:10:00;;;;;;;8.90;2.20;;;;;;;18.22;65.65;102466.06;5062714;28;20425;-53
2023/10/05 13:12:30;;;;;;;8.02;2.22;;;;;;;18.23;65.86;102465.09;5042949;28;20037;-53
2023/10/05 13:14:55;;;;;;;12.90;3.10;;;;;;;18.30;66.03;102469.09;5042827;28;20041;-54
2023/10/05 13:17:21;;;;;;;12.85;3.15;;;;;;;18.33;66.07;102472.44;5053197;28;20067;-54
2023/10/05 13:19:51;;;;;;;10.25;3.20;;;;;;;18.36;66.06;102464.09;5050339;28;20032;-54
2023/10/05 13:22:18;;;;;;;9.70;3.05;;;;;;;18.41;65.91;102465.59;5054509;28;20478;-54
2023/10/05 13:24:44;;;;;;;9.00;2.88;;;;;;;18.44;65.65;102460.00;5055190;28;20086;-53
2023/10/05 13:27:09;;;;;;;5.03;2.72;;;;;;;18.46;65.43;102464.31;5056306;28;20041;-54
2023/10/05 13:29:42;;;;;;;8.27;2.70;;;;;;;18.49;65.48;102444.38;5057090;28;20086;-53
2023/10/05 13:32:12;;;;;;;14.10;3.15;;;;;;;18.53;65.37;102459.34;5052725;28;20044;-53
2023/10/05 13:34:37;;;;;;;8.90;3.03;;;;;;;18.56;65.18;102461.81;5054666;28;20029;-54
2023/10/05 13:37:02;;;;;;;7.65;3.20;;;;;;;18.60;64.83;102443.56;5054448;28;20079;-53
2023/10/05 13:39:28;;;;;;;5.93;2.85;;;;;;;18.62;64.59;102439.81;5084476;28;20672;-54
2023/10/05 13:42:00;;;;;;;10.00;2.65;;;;;;;18.70;64.42;102450.03;5051314;28;20045;-58
2023/10/05 13:44:27;;;;;;;;;;;;;;;18.79;64.88;102448.50;5053072;28;21342;-56
2023/10/05 13:46:54;;;;;;;11.10;3.22;;;;;;;18.85;63.94;102450.75;5053537;28;20322;-55
2023/10/05 13:49:22;;;;;;;17.48;3.75;;;;;;;18.86;63.85;102447.09;5054479;28;20155;-54
2023/10/05 13:51:51;;;;;;;7.63;2.80;;;;;;;18.87;63.81;102435.34;5053985;28;20116;-54
2023/10/05 13:54:18;;;;;;;10.48;3.45;;;;;;;18.86;63.65;102437.16;5045840;28;20035;-54
2023/10/05 13:56:44;;;;;;;8.50;2.70;;;;;;;18.87;63.82;102443.44;5052019;28;20036;-55
2023/10/05 13:59:17;;;;;;;7.35;2.90;;;;;;;18.87;63.69;102440.75;5054850;28;20025;-55
2023/10/05 14:01:44;;;;;;;8.63;2.88;;;;;;;18.88;63.79;102437.06;5055637;28;20033;-54
2023/10/05 14:04:14;;;;;;;9.10;3.25;;;;;;;18.88;63.99;102439.75;5057617;28;20029;-55
2023/10/05 14:06:41;;;;;;;12.25;3.55;;;;;;;18.89;64.17;102433.41;5054531;28;20037;-55
2023/10/05 14:09:10;;;;;;;10.00;3.33;;;;;;;18.91;64.56;102434.13;5056184;28;20044;-55
2023/10/05 14:11:39;;;;;;;9.73;3.15;;;;;;;18.92;63.95;102438.53;5055600;28;20116;-55
2023/10/05 14:14:09;;;;;;;5.82;2.97;;;;;;;18.92;64.63;102427.75;5055335;28;20796;-54
2023/10/05 14:16:49;;;;;;;9.63;3.60;;;;;;;18.93;64.67;102434.88;5058975;28;20086;-55
2023/10/05 14:19:19;;;;;;;9.13;3.47;;;;;;;18.93;64.66;102432.19;5049418;28;20036;-55
2023/10/05 14:21:45;;;;;;;11.68;3.80;;;;;;;18.93;64.75;102430.34;5043499;28;20115;-55
2023/10/05 14:24:12;;;;;;;11.10;3.45;;;;;;;18.94;64.54;102434.78;5033913;28;20103;-55
2023/10/05 14:26:37;;;;;;;12.35;3.70;;;;;;;18.94;64.39;102433.88;5031059;28;20033;-54
2023/10/05 14:29:04;;;;;;;8.75;3.10;;;;;;;18.95;64.24;102436.47;5039315;28;20049;-55
2023/10/05 14:31:31;;;;;;;7.13;3.20;;;;;;;18.97;64.18;102438.22;5042570;28;20053;-55
2023/10/05 14:33:58;;;;;;;7.82;3.33;;;;;;;18.97;64.30;102439.06;5068972;28;20121;-55
2023/10/05 14:36:25;;;;;;;9.05;3.10;;;;;;;18.98;63.98;102437.22;5038746;28;20071;-54
2023/10/05 14:38:51;;;;;;;12.63;2.92;;;;;;;18.99;63.85;102434.41;5043025;28;20071;-55
2023/10/05 14:41:16;;;;;;;12.55;3.22;;;;;;;19.00;64.34;102436.16;5041719;28;20061;-54
2023/10/05 14:43:45;;;;;;;17.60;3.53;;;;;;;19.01;64.41;102432.47;5042941;28;20119;-55
2023/10/05 14:46:14;;;;;;;13.02;3.22;;;;;;;19.04;64.50;102440.34;5039781;28;20116;-53
